Time;durP1;ratioP1;P1;durP2;ratioP2;P2;SDS_P1;SDS_P2;PMS_P1;PMS_P2;Temp;Humidity;BMP_temperature;BMP_pressure;BME280_temperature;BME280_humidity;BME280_pressure;Samples;Min_cycle;Max_cycle;Signal;HPM_P1;HPM_P2
2022/01/25 00:10:41;;;;;;;48.10;23.83;;;4.80;99.90;;;;;;5075204;28;20032;-44
2022/01/25 00:24:22;;;;;;;45.60;23.42;;;4.80;99.90;;;;;;5083713;28;20050;-44
2022/01/25 00:27:05;;;;;;;53.67;24.90;;;4.80;99.90;;;;;;5081816;28;20028;-44
2022/01/25 00:32:13;;;;;;;43.92;22.70;;;4.80;99.90;;;;;;5089502;28;20022;-44
2022/01/25 00:34:39;;;;;;;45.35;23.33;;;4.70;99.90;;;;;;5080604;28;20128;-43
2022/01/25 00:37:04;;;;;;;49.17;24.73;;;4.70;99.90;;;;;;5081513;28;20031;-44
2022/01/25 00:39:30;;;;;;;48.20;24.45;;;4.70;99.90;;;;;;5082777;28;20103;-46
2022/01/25 00:41:56;;;;;;;48.33;24.52;;;4.70;99.90;;;;;;5081463;28;20084;-44
2022/01/25 00:44:22;;;;;;;54.38;25.77;;;4.70;99.90;;;;;;5084905;28;20115;-43
2022/01/25 00:46:48;;;;;;;45.75;23.13;;;4.70;99.90;;;;;;5081529;28;20168;-44
2022/01/25 00:49:26;;;;;;;47.90;23.83;;;4.70;99.90;;;;;;5089061;28;20040;-44
2022/01/25 00:56:50;;;;;;;46.60;23.90;;;4.80;99.90;;;;;;5081149;28;20035;-45
2022/01/25 00:59:19;;;;;;;44.63;22.17;;;4.80;99.90;;;;;;5080604;28;20493;-45
2022/01/25 01:01:47;;;;;;;48.28;23.35;;;4.80;99.90;;;;;;5086476;28;20115;-43
2022/01/25 01:04:12;;;;;;;47.75;24.45;;;4.80;99.90;;;;;;5080993;28;20024;-44
2022/01/25 01:06:41;;;;;;;44.50;24.13;;;4.80;99.90;;;;;;5089522;28;20108;-44
2022/01/25 01:09:10;;;;;;;43.95;22.55;;;4.80;99.90;;;;;;5078697;28;20025;-44
2022/01/25 01:11:44;;;;;;;46.50;22.23;;;4.80;99.90;;;;;;5089272;28;20024;-44
2022/01/25 01:14:38;;;;;;;48.72;23.15;;;4.80;99.90;;;;;;5080589;28;20358;-43
2022/01/25 01:30:48;;;;;;;44.03;21.38;;;4.80;99.90;;;;;;5077483;28;20027;-44
2022/01/25 01:39:22;;;;;;;39.83;21.98;;;4.80;99.90;;;;;;5085636;28;20059;-43
2022/01/25 01:44:39;;;;;;;38.35;20.75;;;4.80;99.90;;;;;;5065460;28;20546;-44
2022/01/25 01:47:19;;;;;;;37.65;20.42;;;4.80;99.90;;;;;;5078535;28;20032;-44
2022/01/25 01:49:45;;;;;;;39.53;21.33;;;4.80;99.90;;;;;;5081315;28;20201;-43
2022/01/25 01:52:12;;;;;;;41.15;20.55;;;4.80;99.90;;;;;;5078918;28;20036;-44
2022/01/25 01:54:38;;;;;;;40.03;20.58;;;4.80;99.90;;;;;;5084040;28;20442;-44
2022/01/25 01:57:06;;;;;;;41.95;21.00;;;4.80;99.90;;;;;;5078962;28;20115;-44
2022/01/25 01:59:31;;;;;;;41.80;21.85;;;4.80;99.90;;;;;;5088128;28;20485;-43
2022/01/25 02:01:57;;;;;;;38.25;19.15;;;4.80;99.90;;;;;;5076132;28;20039;-43
2022/01/25 02:04:23;;;;;;;36.97;20.77;;;4.80;99.90;;;;;;5088383;28;20032;-44
2022/01/25 02:06:48;;;;;;;34.10;19.10;;;4.80;99.90;;;;;;5088578;28;20047;-44
2022/01/25 02:09:14;;;;;;;39.97;21.92;;;4.80;99.90;;;;;;5078705;28;20030;-43
2022/01/25 02:11:40;;;;;;;38.65;20.63;;;4.80;99.90;;;;;;5080086;28;20032;-44
2022/01/25 02:14:09;;;;;;;39.05;20.35;;;4.80;99.90;;;;;;5082098;28;20029;-44
2022/01/25 02:16:54;;;;;;;39.03;21.55;;;4.80;99.90;;;;;;5080366;28;20529;-45
2022/01/25 02:22:27;;;;;;;43.72;23.63;;;4.80;99.90;;;;;;5078897;28;20089;-43
2022/01/25 02:24:53;;;;;;;38.75;21.13;;;4.80;99.90;;;;;;5084948;28;20042;-44
2022/01/25 02:27:18;;;;;;;42.25;22.58;;;4.80;99.90;;;;;;5078104;28;20024;-44
2022/01/25 02:29:44;;;;;;;42.05;22.67;;;4.80;99.90;;;;;;5079809;28;20036;-44
2022/01/25 02:32:10;;;;;;;44.05;23.63;;;4.80;99.90;;;;;;5088306;28;20035;-44
2022/01/25 02:34:36;;;;;;;43.22;24.08;;;4.80;99.90;;;;;;5087013;28;20492;-46
2022/01/25 02:37:05;;;;;;;42.03;21.70;;;4.80;99.90;;;;;;5088312;28;20035;-44
2022/01/25 02:39:32;;;;;;;43.03;23.58;;;4.80;99.90;;;;;;5080094;28;20048;-43
2022/01/25 02:41:57;;;;;;;44.53;24.73;;;4.80;99.90;;;;;;5079908;28;20133;-43
2022/01/25 02:44:26;;;;;;;44.38;24.38;;;4.80;99.90;;;;;;5082214;28;20054;-44
2022/01/25 02:49:19;;;;;;;44.63;23.35;;;4.70;99.90;;;;;;5087714;28;20036;-44
2022/01/25 02:51:48;;;;;;;46.90;24.90;;;4.70;99.90;;;;;;5083024;28;20390;-44
2022/01/25 02:54:16;;;;;;;47.72;24.73;;;4.70;99.90;;;;;;5062155;28;20024;-44
2022/01/25 02:56:44;;;;;;;48.53;24.38;;;4.70;99.90;;;;;;5066211;28;20059;-43
2022/01/25 02:59:10;;;;;;;43.83;23.30;;;4.70;99.90;;;;;;5067844;28;20017;-44
2022/01/25 03:01:37;;;;;;;46.22;24.75;;;4.70;99.90;;;;;;5061114;28;20051;-44
2022/01/25 03:04:04;;;;;;;49.20;26.00;;;4.70;99.90;;;;;;5068394;28;20033;-44
2022/01/25 03:06:30;;;;;;;49.25;24.55;;;4.70;99.90;;;;;;5058729;28;20057;-44
2022/01/25 03:08:56;;;;;;;44.55;23.85;;;4.70;99.90;;;;;;5061604;28;20033;-44
2022/01/25 03:11:23;;;;;;;45.53;23.63;;;4.70;99.90;;;;;;5065672;28;20031;-44
2022/01/25 03:13:54;;;;;;;48.58;24.83;;;4.70;99.90;;;;;;5056411;28;20039;-44
2022/01/25 03:18:57;;;;;;;45.40;25.33;;;4.70;99.90;;;;;;5064473;28;20027;-43
2022/01/25 03:23:52;;;;;;;47.05;24.05;;;4.70;99.90;;;;;;5068628;28;20078;-44
2022/01/25 03:26:18;;;;;;;44.92;23.55;;;4.70;99.90;;;;;;5063096;28;20033;-44
2022/01/25 03:28:44;;;;;;;54.35;26.45;;;4.70;99.90;;;;;;5063686;28;20028;-44
2022/01/25 03:31:10;;;;;;;48.80;24.52;;;4.70;99.90;;;;;;5065614;28;20025;-45
2022/01/25 03:33:36;;;;;;;46.88;25.20;;;4.70;99.90;;;;;;5071175;28;20042;-44
2022/01/25 03:36:02;;;;;;;48.03;25.15;;;4.60;99.90;;;;;;5071044;28;20012;-44
2022/01/25 03:38:28;;;;;;;50.97;27.15;;;4.60;99.90;;;;;;5074257;28;20020;-44
2022/01/25 03:40:54;;;;;;;48.92;25.88;;;4.70;99.90;;;;;;5082745;28;20389;-44
2022/01/25 03:43:19;;;;;;;54.42;27.80;;;4.60;99.90;;;;;;5090063;28;20024;-44
2022/01/25 03:45:58;;;;;;;49.50;24.95;;;4.70;99.90;;;;;;5082415;28;20495;-44
2022/01/25 03:50:51;;;;;;;48.55;24.60;;;4.60;99.90;;;;;;5090918;28;20028;-44
2022/01/25 03:53:19;;;;;;;47.50;25.08;;;4.60;99.90;;;;;;5083936;28;20453;-44
2022/01/25 03:55:46;;;;;;;53.80;26.73;;;4.60;99.90;;;;;;5086172;28;20012;-43
2022/01/25 03:58:11;;;;;;;47.53;25.42;;;4.60;99.90;;;;;;5090314;28;20020;-44
2022/01/25 04:00:38;;;;;;;49.30;25.38;;;4.60;99.90;;;;;;5079293;28;20111;-44
2022/01/25 04:03:09;;;;;;;52.28;26.02;;;4.50;99.90;;;;;;5088814;28;20047;-43
2022/01/25 04:08:01;;;;;;;51.40;26.15;;;4.50;99.90;;;;;;5081593;28;20266;-44
2022/01/25 04:10:26;;;;;;;54.08;27.20;;;4.50;99.90;;;;;;5090577;28;20024;-44
2022/01/25 04:12:52;;;;;;;55.33;28.52;;;4.50;99.90;;;;;;5081056;28;20089;-43
2022/01/25 04:15:18;;;;;;;53.00;26.80;;;4.50;99.90;;;;;;5082188;28;20026;-43
2022/01/25 04:17:48;;;;;;;57.20;28.42;;;4.50;99.90;;;;;;5077267;28;20179;-43
2022/01/25 04:20:22;;;;;;;66.63;30.33;;;4.50;99.90;;;;;;5089709;28;20020;-44
2022/01/25 04:25:32;;;;;;;64.32;29.20;;;4.40;99.90;;;;;;5049784;28;20072;-43
2022/01/25 04:27:58;;;;;;;65.75;29.95;;;4.40;99.90;;;;;;5071035;28;20064;-43
2022/01/25 04:30:24;;;;;;;72.50;32.42;;;4.40;99.90;;;;;;5082642;28;20032;-45
2022/01/25 04:32:58;;;;;;;72.47;31.92;;;4.40;99.90;;;;;;5086915;28;20426;-44
2022/01/25 04:49:03;;;;;;;85.57;36.35;;;4.20;99.90;;;;;;5086361;28;20210;-43
2022/01/25 04:54:08;;;;;;;89.68;37.83;;;4.20;99.90;;;;;;5081545;28;20115;-44
2022/01/25 04:59:14;;;;;;;88.25;40.13;;;4.20;99.90;;;;;;5089383;28;20086;-43
2022/01/25 05:01:41;;;;;;;88.32;36.60;;;4.20;99.90;;;;;;5073936;28;20028;-43
2022/01/25 05:04:12;;;;;;;89.82;39.53;;;4.30;99.90;;;;;;5069344;28;20078;-44
2022/01/25 05:06:38;;;;;;;91.05;39.28;;;4.20;99.90;;;;;;5066288;28;20488;-43
2022/01/25 05:09:12;;;;;;;85.25;38.28;;;4.20;99.90;;;;;;5071084;28;20471;-43
2022/01/25 05:11:46;;;;;;;90.18;38.50;;;4.20;99.90;;;;;;5073413;28;20474;-45
2022/01/25 05:16:57;;;;;;;84.93;36.75;;;4.20;99.90;;;;;;5080533;28;20421;-44
2022/01/25 05:22:04;;;;;;;83.18;36.33;;;4.20;99.90;;;;;;5079303;28;20039;-44
2022/01/25 05:22:21;;;;;;;87.30;37.95;;;4.20;99.90;;;;;;5082478;28;20036;-44
2022/01/25 05:24:48;;;;;;;77.97;35.38;;;4.20;99.90;;;;;;5080992;28;21350;-43
2022/01/25 05:27:17;;;;;;;76.55;34.28;;;4.20;99.90;;;;;;5079983;28;20024;-43
2022/01/25 05:29:42;;;;;;;82.65;33.92;;;4.20;99.90;;;;;;5089518;28;20028;-43
2022/01/25 05:32:08;;;;;;;79.80;34.13;;;4.20;99.90;;;;;;5078942;28;20032;-44
2022/01/25 05:34:34;;;;;;;78.65;35.22;;;4.20;99.90;;;;;;5089563;28;20028;-44
2022/01/25 05:37:00;;;;;;;79.70;35.05;;;4.20;99.90;;;;;;5084323;28;20020;-43
2022/01/25 05:39:36;;;;;;;74.05;33.75;;;4.10;99.90;;;;;;5059783;28;20029;-44
2022/01/25 05:44:54;;;;;;;77.63;34.95;;;4.10;99.90;;;;;;5063996;28;20398;-44
2022/01/25 05:47:25;;;;;;;78.05;33.22;;;4.10;99.90;;;;;;5084355;28;20036;-43
2022/01/25 05:49:51;;;;;;;77.10;32.35;;;4.10;99.90;;;;;;5070941;28;20040;-46
2022/01/25 05:52:17;;;;;;;68.18;31.45;;;4.10;99.90;;;;;;5084817;28;20038;-44
2022/01/25 05:54:42;;;;;;;77.65;33.38;;;4.10;99.90;;;;;;5075893;28;20370;-44
2022/01/25 05:57:08;;;;;;;70.20;32.03;;;4.10;99.90;;;;;;5080262;28;20311;-44
2022/01/25 05:59:33;;;;;;;76.47;32.75;;;4.10;99.90;;;;;;5082994;28;20024;-43
2022/01/25 06:02:00;;;;;;;71.78;30.58;;;4.10;99.90;;;;;;5072111;28;20103;-46
2022/01/25 06:04:27;;;;;;;70.50;30.98;;;4.10;99.90;;;;;;5079328;28;20627;-43
2022/01/25 06:06:53;;;;;;;65.25;30.23;;;4.10;99.90;;;;;;5051008;28;20120;-44
2022/01/25 06:09:18;;;;;;;70.28;32.05;;;4.10;99.90;;;;;;5048398;28;20112;-43
2022/01/25 06:11:44;;;;;;;69.70;30.85;;;4.10;99.90;;;;;;5065163;28;20064;-43
2022/01/25 06:14:09;;;;;;;74.63;31.83;;;4.10;99.90;;;;;;5076542;28;20137;-45
2022/01/25 06:16:35;;;;;;;68.53;30.88;;;4.10;99.90;;;;;;5072750;28;20405;-44
2022/01/25 06:19:01;;;;;;;71.18;30.92;;;4.10;99.90;;;;;;5065162;28;20094;-43
2022/01/25 06:21:27;;;;;;;77.65;32.58;;;4.10;99.90;;;;;;5068389;28;20025;-43
2022/01/25 06:23:52;;;;;;;77.22;31.83;;;4.10;99.90;;;;;;5058779;28;20028;-43
2022/01/25 06:26:18;;;;;;;69.25;30.13;;;4.10;99.90;;;;;;5070324;28;20466;-43
2022/01/25 06:28:44;;;;;;;71.13;31.58;;;4.10;99.90;;;;;;5072217;28;20046;-43
2022/01/25 06:31:09;;;;;;;79.80;33.30;;;4.00;99.90;;;;;;5057488;28;20074;-44
2022/01/25 06:33:37;;;;;;;70.97;30.92;;;4.00;99.90;;;;;;5057556;28;20057;-43
2022/01/25 06:36:03;;;;;;;72.47;31.48;;;4.10;99.90;;;;;;5059647;28;20021;-43
2022/01/25 06:38:29;;;;;;;68.97;30.05;;;4.00;99.90;;;;;;5058618;28;20024;-43
2022/01/25 06:40:55;;;;;;;64.60;29.40;;;4.10;99.90;;;;;;5061142;28;20485;-43
2022/01/25 06:43:20;;;;;;;71.03;32.13;;;4.10;99.90;;;;;;5056335;28;20021;-44
2022/01/25 06:45:54;;;;;;;65.90;29.58;;;4.00;99.90;;;;;;5059766;28;20029;-44
2022/01/25 06:48:20;;;;;;;69.97;31.27;;;4.00;99.90;;;;;;5058448;28;20108;-43
2022/01/25 06:50:46;;;;;;;75.35;32.03;;;4.00;99.90;;;;;;5060858;28;20175;-44
2022/01/25 06:53:11;;;;;;;67.95;30.23;;;4.00;99.90;;;;;;5062779;28;20118;-43
2022/01/25 06:55:37;;;;;;;64.40;28.70;;;4.00;99.90;;;;;;5063350;28;20033;-44
2022/01/25 06:58:02;;;;;;;69.85;30.48;;;4.00;99.90;;;;;;5059309;28;20021;-47
2022/01/25 07:00:28;;;;;;;74.60;31.83;;;4.00;99.90;;;;;;5066809;28;20020;-44
2022/01/25 07:02:53;;;;;;;73.78;31.52;;;4.00;99.90;;;;;;5074870;28;20103;-44
2022/01/25 07:05:19;;;;;;;73.78;31.10;;;4.00;99.90;;;;;;5063334;28;20380;-45
2022/01/25 07:07:46;;;;;;;68.32;30.88;;;4.10;99.90;;;;;;5081803;28;20153;-43
2022/01/25 07:10:12;;;;;;;68.90;31.60;;;4.10;99.90;;;;;;5078658;28;20032;-44
2022/01/25 07:12:37;;;;;;;72.57;31.42;;;4.10;99.90;;;;;;5083165;28;20028;-43
2022/01/25 07:15:04;;;;;;;62.38;28.38;;;4.10;99.90;;;;;;5088297;28;20585;-44
2022/01/25 07:17:29;;;;;;;66.53;31.00;;;4.10;99.90;;;;;;5081646;28;20059;-43
2022/01/25 07:19:55;;;;;;;70.57;30.33;;;4.10;99.90;;;;;;5077937;28;20430;-43
2022/01/25 07:22:20;;;;;;;67.97;29.90;;;4.00;99.90;;;;;;5068190;28;20031;-44
2022/01/25 07:24:46;;;;;;;68.63;30.98;;;4.00;99.90;;;;;;5065258;28;20032;-43
2022/01/25 07:27:11;;;;;;;65.47;29.65;;;4.10;99.90;;;;;;5069249;28;20104;-44
2022/01/25 07:29:37;;;;;;;72.45;31.30;;;4.10;99.90;;;;;;5075194;28;20031;-45
2022/01/25 07:32:02;;;;;;;69.57;30.52;;;4.10;99.90;;;;;;5077154;28;20063;-44
2022/01/25 07:34:28;;;;;;;65.18;29.13;;;4.00;99.90;;;;;;5067762;28;20482;-45
2022/01/25 07:36:54;;;;;;;70.97;32.55;;;4.00;99.90;;;;;;5062102;28;20029;-44
2022/01/25 07:39:21;;;;;;;70.95;30.73;;;4.00;99.90;;;;;;5068916;28;20498;-44
2022/01/25 07:41:47;;;;;;;73.97;31.58;;;4.00;99.90;;;;;;5066892;28;20062;-44
2022/01/25 07:44:13;;;;;;;73.82;32.78;;;4.00;99.90;;;;;;5071824;28;20060;-43
2022/01/25 07:46:39;;;;;;;71.95;32.42;;;4.00;99.90;;;;;;5063728;28;20401;-43
2022/01/25 07:49:06;;;;;;;74.00;32.50;;;4.10;99.90;;;;;;5060278;28;20444;-44
2022/01/25 07:51:31;;;;;;;77.13;33.13;;;4.10;99.90;;;;;;5060090;28;20456;-43
2022/01/25 07:53:59;;;;;;;76.90;32.45;;;4.10;99.90;;;;;;5067236;28;20104;-44
2022/01/25 07:56:25;;;;;;;71.90;31.42;;;4.10;99.90;;;;;;5065977;28;20420;-46
2022/01/25 07:58:51;;;;;;;70.95;30.60;;;4.10;99.90;;;;;;5061944;28;20046;-44
2022/01/25 08:01:16;;;;;;;70.93;30.52;;;4.20;99.90;;;;;;5058073;28;20082;-44
2022/01/25 08:03:43;;;;;;;71.63;33.60;;;4.20;99.90;;;;;;5067414;28;20067;-45
2022/01/25 08:06:09;;;;;;;71.85;31.52;;;4.20;99.90;;;;;;5061583;28;20510;-47
2022/01/25 08:08:36;;;;;;;73.65;33.42;;;4.20;99.90;;;;;;5057013;28;20086;-44
2022/01/25 08:11:03;;;;;;;86.30;35.47;;;4.10;99.90;;;;;;5063741;28;20021;-44
2022/01/25 08:13:29;;;;;;;80.13;35.67;;;4.10;99.90;;;;;;5059763;28;20040;-44
2022/01/25 08:15:55;;;;;;;74.57;31.92;;;4.10;99.90;;;;;;5061631;28;20100;-44
2022/01/25 08:18:21;;;;;;;79.13;33.10;;;4.10;99.90;;;;;;5070800;28;20541;-44
2022/01/25 08:20:47;;;;;;;70.25;32.83;;;4.10;99.90;;;;;;5070977;28;20036;-44
2022/01/25 08:23:12;;;;;;;76.18;34.47;;;4.10;99.90;;;;;;5057498;28;20111;-44
2022/01/25 08:25:38;;;;;;;74.00;32.45;;;4.10;99.90;;;;;;5071009;28;20505;-44
2022/01/25 08:28:04;;;;;;;75.28;33.22;;;4.10;99.90;;;;;;5076477;28;20071;-45
2022/01/25 08:30:29;;;;;;;77.95;32.22;;;4.10;99.90;;;;;;5069344;28;20029;-44
2022/01/25 08:32:55;;;;;;;73.35;30.95;;;4.10;99.90;;;;;;5064049;28;20555;-44
2022/01/25 08:35:20;;;;;;;68.10;30.42;;;4.20;99.90;;;;;;5059426;28;20035;-44
2022/01/25 08:37:46;;;;;;;82.38;33.15;;;4.20;99.90;;;;;;5059756;28;20470;-45
2022/01/25 08:40:11;;;;;;;70.05;31.75;;;4.20;99.90;;;;;;5066788;28;20025;-46
2022/01/25 08:42:37;;;;;;;75.25;31.80;;;4.20;99.90;;;;;;5053160;28;20029;-44
2022/01/25 08:45:06;;;;;;;75.75;31.45;;;4.30;99.90;;;;;;5064633;28;20071;-46
2022/01/25 08:47:32;;;;;;;70.63;29.55;;;4.30;99.90;;;;;;5066255;28;20028;-44
2022/01/25 08:49:58;;;;;;;68.45;30.92;;;4.20;99.90;;;;;;5060816;28;20039;-44
2022/01/25 08:52:23;;;;;;;71.35;32.08;;;4.20;99.90;;;;;;5064511;28;20017;-43
2022/01/25 08:54:49;;;;;;;77.88;33.40;;;4.20;99.90;;;;;;5060402;28;20515;-44
2022/01/25 08:57:15;;;;;;;77.05;32.42;;;4.20;99.90;;;;;;5077467;28;20382;-44
2022/01/25 08:59:41;;;;;;;75.97;33.13;;;4.30;99.90;;;;;;5061058;28;20024;-43
2022/01/25 09:02:06;;;;;;;75.03;33.17;;;4.30;99.90;;;;;;5089751;28;20070;-43
2022/01/25 09:04:32;;;;;;;72.88;31.17;;;4.20;99.90;;;;;;5079667;28;20112;-45
2022/01/25 09:06:57;;;;;;;77.88;31.30;;;4.20;99.90;;;;;;5054424;28;21271;-43
2022/01/25 09:09:23;;;;;;;78.20;34.05;;;4.30;99.90;;;;;;5080659;28;20035;-45
2022/01/25 09:11:49;;;;;;;78.10;34.97;;;4.20;99.90;;;;;;5068624;28;20037;-44
2022/01/25 09:14:15;;;;;;;73.60;32.70;;;4.20;99.90;;;;;;5071375;28;20024;-43
2022/01/25 09:16:41;;;;;;;80.43;34.80;;;4.20;99.90;;;;;;5070345;28;20059;-43
2022/01/25 09:19:07;;;;;;;76.80;33.15;;;4.20;99.90;;;;;;5056315;28;20048;-43
2022/01/25 09:21:33;;;;;;;84.03;34.25;;;4.30;99.90;;;;;;5057042;28;20040;-43
2022/01/25 09:23:59;;;;;;;74.93;31.95;;;4.20;99.90;;;;;;5064245;28;20052;-43
2022/01/25 09:26:25;;;;;;;80.07;34.70;;;4.30;99.90;;;;;;5061161;28;20064;-43
2022/01/25 09:28:54;;;;;;;83.55;36.03;;;4.30;99.90;;;;;;5078259;28;20570;-43
2022/01/25 09:31:21;;;;;;;86.85;37.10;;;4.30;99.90;;;;;;5059735;28;20032;-44
2022/01/25 09:33:46;;;;;;;74.88;35.05;;;4.30;99.90;;;;;;5066733;28;20023;-42
2022/01/25 09:36:12;;;;;;;85.00;34.40;;;4.30;99.90;;;;;;5062746;28;20033;-44
2022/01/25 09:38:37;;;;;;;84.20;36.55;;;4.10;99.90;;;;;;5059538;28;20029;-44
2022/01/25 09:41:03;;;;;;;79.35;33.95;;;4.20;99.90;;;;;;5057759;28;20031;-45
2022/01/25 09:43:30;;;;;;;72.82;31.83;;;4.20;99.90;;;;;;5059638;28;20031;-44
2022/01/25 09:45:56;;;;;;;70.57;31.63;;;4.20;99.90;;;;;;5063874;28;20104;-45
2022/01/25 09:48:22;;;;;;;88.28;37.88;;;4.30;99.90;;;;;;5059118;28;20147;-43
2022/01/25 09:50:47;;;;;;;80.90;34.78;;;4.20;99.90;;;;;;5063501;28;20107;-46
2022/01/25 09:53:14;;;;;;;84.60;34.50;;;4.20;99.90;;;;;;5059915;28;20045;-43
2022/01/25 09:55:42;;;;;;;77.50;32.95;;;4.20;99.90;;;;;;5060403;28;20028;-44
2022/01/25 09:58:09;;;;;;;82.40;35.63;;;4.20;99.90;;;;;;5059444;28;20029;-44
2022/01/25 10:00:37;;;;;;;82.90;34.70;;;4.30;99.90;;;;;;5054623;28;20227;-43
2022/01/25 10:05:35;;;;;;;80.97;33.88;;;4.30;99.90;;;;;;5071343;28;20024;-45
2022/01/25 10:08:35;;;;;;;84.65;35.33;;;4.40;99.90;;;;;;5081757;28;20028;-43
2022/01/25 10:11:06;;;;;;;83.50;35.60;;;4.40;99.90;;;;;;5059603;28;20090;-44
2022/01/25 10:13:40;;;;;;;77.07;33.35;;;4.50;99.90;;;;;;5077693;28;20016;-43
2022/01/25 10:16:14;;;;;;;82.38;34.50;;;4.60;99.90;;;;;;5068668;28;20078;-46
2022/01/25 10:18:56;;;;;;;72.90;32.03;;;4.90;99.90;;;;;;5063899;28;20031;-43
2022/01/25 10:21:27;;;;;;;71.25;31.48;;;5.20;99.90;;;;;;5072090;28;20024;-43
2022/01/25 10:24:07;;;;;;;73.53;33.08;;;5.50;99.90;;;;;;5078828;28;20029;-43
2022/01/25 10:26:42;;;;;;;66.22;31.77;;;6.10;99.90;;;;;;5076878;28;20028;-45
2022/01/25 10:29:10;;;;;;;68.55;32.35;;;6.30;99.90;;;;;;5080191;28;20024;-45
2022/01/25 10:31:37;;;;;;;63.67;31.60;;;6.40;99.90;;;;;;5073838;28;20054;-43
2022/01/25 10:34:04;;;;;;;61.28;31.67;;;6.40;99.90;;;;;;5078484;28;20020;-43
2022/01/25 10:36:30;;;;;;;66.72;32.03;;;6.30;99.90;;;;;;5076581;28;20016;-45
2022/01/25 10:38:56;;;;;;;56.17;26.98;;;6.30;99.90;;;;;;5063587;28;20031;-44
2022/01/25 10:41:24;;;;;;;66.57;32.60;;;6.40;99.90;;;;;;5073928;28;20036;-45
2022/01/25 10:43:53;;;;;;;68.97;31.38;;;6.40;99.90;;;;;;5059514;28;20098;-44
2022/01/25 10:46:26;;;;;;;67.72;33.38;;;6.60;99.90;;;;;;5061844;28;20693;-43
2022/01/25 10:49:07;;;;;;;66.00;31.15;;;6.70;99.90;;;;;;5059044;28;20028;-43
2022/01/25 10:51:34;;;;;;;61.35;30.30;;;6.70;99.90;;;;;;5073920;28;20035;-44
2022/01/25 10:54:22;;;;;;;65.47;30.92;;;6.40;99.90;;;;;;5074116;28;20025;-44
2022/01/25 10:56:50;;;;;;;65.38;30.75;;;6.60;99.90;;;;;;5071928;28;20035;-44
2022/01/25 10:59:19;;;;;;;63.22;30.05;;;6.60;99.90;;;;;;5063630;28;20027;-43
2022/01/25 11:01:55;;;;;;;60.13;29.67;;;6.70;99.90;;;;;;5063454;28;20062;-44
2022/01/25 11:04:34;;;;;;;64.35;29.95;;;6.80;99.90;;;;;;5068205;28;20020;-43
2022/01/25 11:07:04;;;;;;;70.50;29.85;;;7.00;99.90;;;;;;5067713;28;20017;-45
2022/01/25 11:09:37;;;;;;;63.17;30.43;;;7.10;99.90;;;;;;5061451;28;20025;-45
2022/01/25 11:12:06;;;;;;;55.17;28.33;;;7.40;99.90;;;;;;5069586;28;20289;-45
2022/01/25 11:14:50;;;;;;;61.03;29.80;;;7.70;99.90;;;;;;5064843;28;20043;-45
2022/01/25 11:17:17;;;;;;;60.80;30.48;;;8.10;99.90;;;;;;5063672;28;20017;-43
2022/01/25 11:19:42;;;;;;;54.08;28.45;;;7.90;99.90;;;;;;5060318;28;20039;-46
2022/01/25 11:22:12;;;;;;;58.42;29.08;;;7.80;99.90;;;;;;5062019;28;20103;-44
2022/01/25 11:24:39;;;;;;;56.15;29.08;;;7.50;99.90;;;;;;5066327;28;20028;-45
2022/01/25 11:27:07;;;;;;;59.80;29.98;;;7.60;99.90;;;;;;5075951;28;20028;-43
2022/01/25 11:29:35;;;;;;;57.30;28.98;;;8.00;99.90;;;;;;5083085;28;20021;-44
2022/01/25 11:32:11;;;;;;;57.17;28.30;;;8.30;99.90;;;;;;5079921;28;20032;-44
2022/01/25 11:34:38;;;;;;;49.45;27.98;;;8.80;99.90;;;;;;5085727;28;20619;-43
2022/01/25 11:37:07;;;;;;;53.30;29.35;;;9.00;99.90;;;;;;5086747;28;20036;-43
2022/01/25 11:39:33;;;;;;;54.35;28.60;;;9.10;99.90;;;;;;5076012;28;20051;-44
2022/01/25 11:42:05;;;;;;;52.90;28.55;;;9.00;99.90;;;;;;5061219;28;20051;-44
2022/01/25 11:44:31;;;;;;;51.60;26.80;;;8.90;99.90;;;;;;5084314;28;20024;-43
2022/01/25 11:47:09;;;;;;;47.10;24.73;;;8.60;99.90;;;;;;5086880;28;20042;-44
2022/01/25 11:49:35;;;;;;;45.47;22.08;;;8.30;99.90;;;;;;5076165;28;20512;-43
2022/01/25 11:52:12;;;;;;;42.33;22.05;;;7.90;99.90;;;;;;5081048;28;20072;-43
2022/01/25 11:54:37;;;;;;;49.78;23.65;;;7.50;99.90;;;;;;5080042;28;20020;-44
2022/01/25 11:57:13;;;;;;;44.40;22.70;;;7.30;99.90;;;;;;5060701;28;20498;-43
2022/01/25 11:59:40;;;;;;;45.67;23.70;;;7.10;99.90;;;;;;5058770;28;20024;-46
2022/01/25 12:02:05;;;;;;;53.63;25.88;;;6.80;99.90;;;;;;5086702;28;20039;-43
2022/01/25 12:04:31;;;;;;;52.95;25.77;;;6.80;99.90;;;;;;5070443;28;20029;-43
2022/01/25 12:07:08;;;;;;;55.08;26.13;;;6.90;99.90;;;;;;5078762;28;20120;-43
2022/01/25 12:09:47;;;;;;;47.95;23.45;;;7.00;99.90;;;;;;5061274;28;20390;-43
2022/01/25 12:12:14;;;;;;;55.70;25.40;;;6.90;99.90;;;;;;5064924;28;20075;-43
2022/01/25 12:14:50;;;;;;;48.22;21.60;;;6.90;99.90;;;;;;5077671;28;20439;-42
2022/01/25 12:17:23;;;;;;;45.58;22.85;;;6.60;99.90;;;;;;5063427;28;20020;-43
2022/01/25 12:19:58;;;;;;;47.90;22.50;;;6.70;99.90;;;;;;5063245;28;20090;-44
2022/01/25 12:22:28;;;;;;;44.50;21.73;;;6.60;99.90;;;;;;5060724;28;20396;-45
2022/01/25 12:25:16;;;;;;;54.78;23.90;;;6.50;99.90;;;;;;5060221;28;20093;-42
2022/01/25 12:28:03;;;;;;;43.55;22.15;;;6.40;99.90;;;;;;5063075;28;20143;-43
2022/01/25 12:30:38;;;;;;;48.75;22.17;;;6.40;99.90;;;;;;5064380;28;20029;-45
2022/01/25 12:33:20;;;;;;;45.42;21.02;;;6.20;99.90;;;;;;5065546;28;20478;-43
2022/01/25 12:36:07;;;;;;;49.63;23.60;;;6.20;99.90;;;;;;5060146;28;20107;-46
2022/01/25 12:38:51;;;;;;;45.22;22.00;;;6.20;99.90;;;;;;5074481;28;20021;-43
2022/01/25 12:41:18;;;;;;;41.17;20.95;;;6.30;99.90;;;;;;5072022;28;20477;-45
2022/01/25 12:43:45;;;;;;;47.47;21.25;;;6.30;99.90;;;;;;5066426;28;20092;-44
2022/01/25 12:46:12;;;;;;;47.22;21.95;;;6.30;99.90;;;;;;5061514;28;20021;-46
2022/01/25 12:48:42;;;;;;;48.40;23.33;;;6.20;99.90;;;;;;5061965;28;20235;-46
2022/01/25 12:51:10;;;;;;;46.90;21.08;;;6.20;99.90;;;;;;5057252;28;20024;-44
2022/01/25 12:53:43;;;;;;;51.17;23.50;;;6.30;99.90;;;;;;5063395;28;20024;-45
2022/01/25 12:56:13;;;;;;;43.40;21.38;;;6.30;99.90;;;;;;5058081;28;20034;-44
2022/01/25 12:58:39;;;;;;;46.17;20.58;;;6.30;99.90;;;;;;5060884;28;20107;-43
2022/01/25 13:01:11;;;;;;;46.40;20.05;;;6.40;99.90;;;;;;5057770;28;20120;-44
2022/01/25 13:03:40;;;;;;;44.50;21.23;;;6.30;99.90;;;;;;5060918;28;20028;-43
2022/01/25 13:06:23;;;;;;;40.75;17.85;;;6.40;99.90;;;;;;5059008;28;20425;-45
2022/01/25 13:16:52;;;;;;;37.80;18.10;;;6.10;99.90;;;;;;5061380;28;20055;-45
2022/01/25 13:19:27;;;;;;;36.58;16.92;;;6.00;99.90;;;;;;5056680;28;20021;-42
2022/01/25 13:22:01;;;;;;;37.13;17.27;;;5.90;99.90;;;;;;5055326;28;20530;-43
2022/01/25 13:24:32;;;;;;;35.08;16.23;;;5.90;99.90;;;;;;5059640;28;20024;-45
2022/01/25 13:27:15;;;;;;;37.38;17.17;;;5.90;99.90;;;;;;5072107;28;20321;-43
2022/01/25 13:32:34;;;;;;;32.65;15.32;;;5.90;99.90;;;;;;5073889;28;20031;-44
2022/01/25 13:35:25;;;;;;;33.95;16.98;;;5.90;99.90;;;;;;5089097;28;20097;-46
2022/01/25 13:38:18;;;;;;;34.40;16.15;;;5.90;99.90;;;;;;5072548;28;20020;-43
2022/01/25 13:46:08;;;;;;;45.53;19.70;;;6.00;99.90;;;;;;5073352;28;20036;-44
2022/01/25 13:48:35;;;;;;;36.05;17.75;;;6.00;99.90;;;;;;5066637;28;20031;-44
2022/01/25 13:51:07;;;;;;;44.67;20.85;;;6.00;99.90;;;;;;5080398;28;20035;-44
2022/01/25 13:53:34;;;;;;;42.05;20.73;;;6.00;99.90;;;;;;5071370;28;20031;-44
2022/01/25 13:56:01;;;;;;;50.35;21.90;;;5.90;99.90;;;;;;5068060;28;20028;-43
2022/01/25 13:58:33;;;;;;;45.45;21.38;;;5.90;99.90;;;;;;5059371;28;20454;-43
2022/01/25 14:01:01;;;;;;;52.50;20.20;;;5.90;99.90;;;;;;5059921;28;20036;-42
2022/01/25 14:03:30;;;;;;;42.40;19.83;;;5.90;99.90;;;;;;5058136;28;20021;-43
2022/01/25 14:05:57;;;;;;;44.58;21.35;;;5.80;99.90;;;;;;5062797;28;20048;-44
2022/01/25 14:08:39;;;;;;;42.88;20.55;;;5.80;99.90;;;;;;5057795;28;20032;-43
2022/01/25 14:11:20;;;;;;;47.25;21.35;;;5.80;99.90;;;;;;5060981;28;20373;-43
2022/01/25 14:24:53;;;;;;;42.03;19.27;;;5.70;99.90;;;;;;5079578;28;20042;-43
2022/01/25 14:27:35;;;;;;;42.58;19.30;;;5.70;99.90;;;;;;5066370;28;20040;-44
2022/01/25 14:30:00;;;;;;;44.85;19.42;;;5.70;99.90;;;;;;5073708;28;20044;-45
2022/01/25 14:32:34;;;;;;;44.67;19.52;;;5.70;99.90;;;;;;5076657;28;20048;-43
2022/01/25 14:35:09;;;;;;;102.20;48.00;;;5.60;99.90;;;;;;5078804;28;20089;-44
2022/01/25 14:37:52;;;;;;;44.13;20.55;;;5.60;99.90;;;;;;5082250;28;20659;-43
2022/01/25 14:40:18;;;;;;;45.10;20.85;;;5.60;99.90;;;;;;5068246;28;20024;-43
2022/01/25 14:42:46;;;;;;;51.38;22.58;;;5.50;99.90;;;;;;5073693;28;20438;-43
2022/01/25 14:45:19;;;;;;;42.78;20.98;;;5.50;99.90;;;;;;5079323;28;20088;-43
2022/01/25 14:47:48;;;;;;;47.13;20.90;;;5.50;99.90;;;;;;5064210;28;20354;-44